Glover, Vermont
Current Conditions -  °F | °C
As of 5:15 AM on Thursday 29 Jan 2015 (Local Time) from KEFK Reporting Station
Clear Clear  
Wind Chill: -25°   Ceiling: Unl
Heat Index: -10°   Visibility: 10mi
Dew Point: -14°   Wind: 7mph
Humidity: 81%   Direction: 220°SW
Pressure: 30.27"   Gusts: NA
Location:  44.7°N, 72.21°W
Report Text: KEFK 291015Z AUTO 22006KT 10SM CLR M23/M26 A3027 RMK AO2 T12341258
Loading
Personal Weather Stations






























Interactive Weather Map New forecast layout! Learn more

10-Day Weather Forecast

Advertisements
Track Severe Weather on mobile